Time;durP1;ratioP1;P1;durP2;ratioP2;P2;SDS_P1;SDS_P2;PMS_P1;PMS_P2;Temp;Humidity;BMP_temperature;BMP_pressure;BME280_temperature;BME280_humidity;BME280_pressure;Samples;Min_cycle;Max_cycle;Signal;HPM_P1;HPM_P2
2023/08/23 04:05:45;;;;;;;11.76;8.70;;;;;;;21.83;100.00;100330.47;6350984;27;20071;-82
2023/08/23 04:09:35;;;;;;;16.80;10.10;;;;;;;21.93;100.00;100325.94;5318762;33;31544;-84
2023/08/23 04:13:01;;;;;;;11.73;9.10;;;;;;;21.94;100.00;100326.81;5308116;33;32982;-85
2023/08/23 04:16:19;;;;;;;17.17;9.70;;;;;;;21.91;100.00;100319.91;5318325;33;32637;-85
2023/08/23 04:20:03;;;;;;;13.77;9.38;;;;;;;21.99;100.00;100320.53;5308512;33;34044;-84
2023/08/23 04:23:25;;;;;;;16.10;10.27;;;;;;;22.03;100.00;100314.31;5307775;33;33713;-84
2023/08/23 04:26:28;;;;;;;15.05;9.60;;;;;;;22.04;100.00;100310.47;5306678;33;33502;-84
2023/08/23 04:29:31;;;;;;;19.55;10.88;;;;;;;22.07;100.00;100303.66;5306607;33;33158;-84
2023/08/23 04:32:34;;;;;;;15.70;10.80;;;;;;;22.11;100.00;100299.28;5306579;33;33190;-84
2023/08/23 04:35:37;;;;;;;12.95;9.38;;;;;;;22.18;100.00;100302.72;5305826;33;33542;-84
2023/08/23 04:38:40;;;;;;;18.10;10.55;;;;;;;22.25;100.00;100308.00;5308058;33;33841;-84
2023/08/23 04:41:43;;;;;;;15.10;10.32;;;;;;;22.33;100.00;100300.12;5307031;33;33545;-84
2023/08/23 04:44:46;;;;;;;13.55;10.00;;;;;;;22.37;100.00;100301.28;5307237;33;33306;-84
2023/08/23 04:47:52;;;;;;;14.95;10.02;;;;;;;22.45;100.00;100305.47;5294976;33;33718;-84
2023/08/23 04:50:58;;;;;;;14.23;10.35;;;;;;;22.57;100.00;100308.91;5307816;33;33599;-84
2023/08/23 04:54:01;;;;;;;18.45;10.07;;;;;;;22.74;100.00;100305.22;5307516;33;33478;-83
2023/08/23 04:57:05;;;;;;;15.55;10.57;;;;;;;22.86;100.00;100303.12;5318175;33;34200;-83
2023/08/23 05:00:09;;;;;;;17.08;10.25;;;;;;;22.96;100.00;100302.41;5306830;33;33545;-83
2023/08/23 05:03:12;;;;;;;16.55;10.40;;;;;;;23.06;100.00;100302.50;5307117;33;33719;-84
2023/08/23 05:06:17;;;;;;;13.70;9.82;;;;;;;23.19;100.00;100304.78;5307531;33;33487;-84
2023/08/23 05:09:20;;;;;;;16.25;9.73;;;;;;;23.34;100.00;100301.31;5294406;33;33172;-83
2023/08/23 05:12:24;;;;;;;13.23;9.55;;;;;;;23.46;100.00;100301.97;5289201;33;33787;-87
2023/08/23 05:15:27;;;;;;;16.05;9.60;;;;;;;23.63;100.00;100301.78;5278612;33;34114;-88
2023/08/23 05:18:30;;;;;;;16.12;9.70;;;;;;;23.74;100.00;100299.94;5291281;33;32958;-88
2023/08/23 05:21:34;;;;;;;14.55;9.15;;;;;;;23.92;100.00;100302.22;5304098;33;34066;-87
2023/08/23 05:24:37;;;;;;;15.68;8.90;;;;;;;24.10;100.00;100295.47;5300115;33;34906;-84
2023/08/23 05:27:40;;;;;;;13.93;8.68;;;;;;;24.30;100.00;100296.59;5288700;33;33661;-84
2023/08/23 05:30:43;;;;;;;10.70;8.43;;;;;;;24.47;100.00;100294.47;5288781;33;34182;-84
2023/08/23 05:33:50;;;;;;;12.45;8.63;;;;;;;24.65;100.00;100304.94;5290486;33;35223;-84
2023/08/23 05:36:53;;;;;;;12.00;8.18;;;;;;;24.85;100.00;100295.88;5291203;33;34622;-83
2023/08/23 05:39:55;;;;;;;12.25;8.07;;;;;;;25.02;100.00;100294.81;5291202;33;34019;-85
2023/08/23 05:42:59;;;;;;;10.98;7.97;;;;;;;25.19;100.00;100300.06;5290940;33;33712;-84
2023/08/23 05:46:03;;;;;;;11.50;7.78;;;;;;;25.39;100.00;100301.94;5292382;33;33917;-85
2023/08/23 05:49:06;;;;;;;15.10;8.40;;;;;;;25.53;100.00;100303.84;5290097;33;34006;-84
2023/08/23 05:52:09;;;;;;;12.57;7.90;;;;;;;25.76;100.00;100296.06;5288096;33;34507;-84
2023/08/23 05:55:13;;;;;;;11.10;7.78;;;;;;;25.88;100.00;100299.38;5286788;33;34134;-84
2023/08/23 05:58:17;;;;;;;14.07;7.60;;;;;;;26.02;100.00;100303.16;5287387;33;33734;-84
2023/08/23 06:01:21;;;;;;;12.60;7.60;;;;;;;26.13;100.00;100297.63;5288932;33;34133;-84
2023/08/23 06:04:24;;;;;;;12.20;7.47;;;;;;;26.25;100.00;100295.34;5299835;33;34844;-84
2023/08/23 06:07:27;;;;;;;15.13;8.00;;;;;;;26.32;100.00;100293.09;5305687;33;33265;-84
2023/08/23 06:10:30;;;;;;;12.45;8.35;;;;;;;26.48;99.88;100296.59;5294502;33;33938;-84
2023/08/23 06:13:33;;;;;;;10.80;7.82;;;;;;;26.64;99.45;100295.38;5293729;33;33643;-84
2023/08/23 06:16:36;;;;;;;10.85;7.45;;;;;;;26.77;98.38;100301.41;5294552;33;33797;-84
2023/08/23 06:19:39;;;;;;;12.73;7.35;;;;;;;26.92;97.56;100295.75;5294527;33;33564;-84
2023/08/23 06:22:42;;;;;;;9.88;7.20;;;;;;;27.15;97.08;100305.25;5306161;33;34126;-84
2023/08/23 06:25:44;;;;;;;10.93;7.35;;;;;;;27.32;95.61;100311.19;5305620;33;33216;-84
2023/08/23 06:28:47;;;;;;;11.20;7.20;;;;;;;27.53;97.09;100313.75;5306468;33;33674;-84
2023/08/23 06:31:50;;;;;;;13.60;7.65;;;;;;;27.71;94.37;100320.47;5294691;33;33537;-84
2023/08/23 06:34:54;;;;;;;12.02;7.60;;;;;;;27.79;93.74;100322.63;5306072;33;34227;-85
2023/08/23 06:37:57;;;;;;;24.92;8.10;;;;;;;27.98;93.05;100312.41;5307598;33;33734;-85
2023/08/23 06:41:00;;;;;;;11.77;6.95;;;;;;;28.15;93.66;100319.41;5294563;33;33532;-84
2023/08/23 06:44:03;;;;;;;10.40;7.65;;;;;;;28.26;92.68;100324.53;5307785;33;33206;-85
2023/08/23 06:47:06;;;;;;;11.75;6.93;;;;;;;28.38;88.42;100320.50;5297073;33;33301;-84
2023/08/23 06:50:10;;;;;;;9.50;6.18;;;;;;;28.43;87.46;100317.66;5321591;33;33498;-85
2023/08/23 06:53:18;;;;;;;8.73;6.60;;;;;;;28.59;87.51;100312.75;5319446;33;35112;-85
2023/08/23 06:56:25;;;;;;;10.27;6.65;;;;;;;28.58;85.33;100306.38;5310604;33;34579;-85
2023/08/23 06:59:28;;;;;;;9.02;6.75;;;;;;;28.67;84.38;100312.88;5322523;33;33223;-84
2023/08/23 07:02:31;;;;;;;9.50;6.40;;;;;;;28.77;83.62;100320.22;5310054;33;33595;-84
2023/08/23 07:05:34;;;;;;;11.40;6.53;;;;;;;28.76;84.01;100314.97;5299936;33;33696;-84
2023/08/23 07:08:37;;;;;;;15.02;7.12;;;;;;;28.97;84.67;100318.25;5289365;33;31955;-84
2023/08/23 07:11:40;;;;;;;7.12;5.82;;;;;;;29.15;84.49;100323.78;5287442;33;33239;-84
2023/08/23 07:14:46;;;;;;;8.43;6.20;;;;;;;29.13;82.63;100316.88;5299841;33;33936;-84
2023/08/23 07:17:49;;;;;;;9.20;6.20;;;;;;;29.35;83.11;100319.81;5288238;33;34811;-84
2023/08/23 07:20:53;;;;;;;8.80;6.57;;;;;;;29.47;81.94;100326.84;5295609;33;33594;-84
2023/08/23 07:23:56;;;;;;;8.52;6.30;;;;;;;29.39;81.07;100322.81;5285187;33;33585;-88
2023/08/23 07:26:59;;;;;;;9.70;6.40;;;;;;;29.41;81.08;100331.66;5289523;33;34214;-88
2023/08/23 07:30:03;;;;;;;11.35;6.87;;;;;;;29.59;81.21;100322.41;5265642;33;34202;-87
2023/08/23 07:33:07;;;;;;;9.18;6.47;;;;;;;29.82;79.21;100334.50;5277441;33;34678;-87
2023/08/23 07:36:11;;;;;;;8.10;6.15;;;;;;;29.79;79.40;100334.31;5277620;33;34318;-83
2023/08/23 07:39:14;;;;;;;10.48;6.35;;;;;;;29.80;78.57;100333.16;5288645;33;33215;-85
2023/08/23 07:42:17;;;;;;;8.88;6.30;;;;;;;29.76;77.93;100335.72;5288728;33;34863;-85
2023/08/23 07:45:20;;;;;;;7.95;6.53;;;;;;;29.79;78.64;100328.75;5284516;33;34314;-82
2023/08/23 07:48:24;;;;;;;7.85;6.50;;;;;;;29.93;78.02;100337.91;5296111;33;33274;-82
2023/08/23 07:51:27;;;;;;;10.07;6.75;;;;;;;30.04;77.84;100339.34;5279589;33;34771;-83
2023/08/23 07:54:30;;;;;;;14.20;6.68;;;;;;;29.94;77.32;100345.09;5289390;33;33262;-82
2023/08/23 07:57:33;;;;;;;10.35;6.90;;;;;;;30.19;77.37;100348.50;5276537;33;34313;-82
2023/08/23 08:00:36;;;;;;;7.95;6.50;;;;;;;30.37;76.68;100343.97;5275600;33;34460;-82
2023/08/23 08:03:40;;;;;;;8.07;6.50;;;;;;;30.59;75.88;100344.00;5299839;33;33223;-82
2023/08/23 08:06:43;;;;;;;8.98;6.53;;;;;;;30.67;75.21;100339.66;5289318;33;33419;-82
2023/08/23 08:09:47;;;;;;;8.18;6.35;;;;;;;30.81;75.00;100343.25;5297316;33;33524;-83
2023/08/23 08:12:49;;;;;;;11.48;6.37;;;;;;;30.91;75.78;100343.00;5276236;33;34267;-83
2023/08/23 08:15:52;;;;;;;7.40;5.70;;;;;;;31.17;72.30;100345.97;5299206;33;32200;-83
2023/08/23 08:18:55;;;;;;;12.60;5.85;;;;;;;31.29;70.77;100348.19;5288780;33;34389;-83
2023/08/23 08:21:58;;;;;;;11.57;5.97;;;;;;;31.23;70.59;100346.66;5280978;33;33628;-83
2023/08/23 08:25:01;;;;;;;6.00;5.37;;;;;;;31.42;70.33;100343.72;5300692;33;33689;-83
2023/08/23 08:28:04;;;;;;;5.72;5.12;;;;;;;31.50;69.58;100344.88;5278147;33;33244;-83
2023/08/23 08:31:08;;;;;;;7.78;5.25;;;;;;;31.63;69.54;100344.00;5275626;33;34220;-82
2023/08/23 08:34:11;;;;;;;7.37;5.55;;;;;;;31.49;68.57;100344.06;5287499;33;33172;-83
2023/08/23 08:37:15;;;;;;;6.87;5.45;;;;;;;31.67;69.73;100338.59;5287192;33;33511;-83
2023/08/23 08:40:21;;;;;;;9.52;5.53;;;;;;;31.68;68.87;100335.50;5275194;33;34341;-83
2023/08/23 08:43:25;;;;;;;7.93;5.87;;;;;;;31.71;67.98;100329.28;5276225;33;33960;-83
2023/08/23 08:46:28;;;;;;;8.85;6.05;;;;;;;31.77;68.79;100336.34;5287295;33;33632;-82
2023/08/23 08:49:31;;;;;;;10.02;6.57;;;;;;;31.73;67.86;100334.53;5289359;33;33667;-82
2023/08/23 08:52:36;;;;;;;7.57;6.20;;;;;;;31.75;68.49;100330.28;5282996;33;33239;-83
2023/08/23 08:55:41;;;;;;;8.55;6.12;;;;;;;31.83;69.00;100335.06;5290707;33;33725;-83
2023/08/23 08:58:45;;;;;;;6.90;5.65;;;;;;;31.96;67.96;100338.09;5290165;33;33401;-83
2023/08/23 09:01:49;;;;;;;9.02;6.15;;;;;;;32.03;67.33;100352.34;5290117;33;32371;-82
2023/08/23 09:04:53;;;;;;;9.50;6.25;;;;;;;32.00;66.90;100348.28;5277054;33;34361;-83
2023/08/23 09:07:56;;;;;;;8.68;5.90;;;;;;;32.10;67.16;100343.53;5298243;33;33776;-83
2023/08/23 09:10:59;;;;;;;7.00;6.03;;;;;;;32.28;66.44;100336.88;5294346;33;34363;-83
2023/08/23 09:14:20;;;;;;;11.93;6.18;;;;;;;32.44;67.50;100342.78;5306971;33;33673;-83
2023/08/23 09:17:23;;;;;;;6.75;6.05;;;;;;;32.61;64.48;100336.44;5306492;33;34473;-83
2023/08/23 09:20:26;;;;;;;10.27;5.82;;;;;;;32.61;63.91;100334.47;5294621;33;33324;-82
2023/08/23 09:23:35;;;;;;;8.85;6.07;;;;;;;32.64;64.55;100338.56;5303197;33;33665;-85
2023/08/23 09:26:39;;;;;;;8.48;5.68;;;;;;;32.91;63.71;100348.59;5301934;33;33803;-88
2023/08/23 09:29:43;;;;;;;8.95;5.75;;;;;;;32.99;63.09;100336.63;5301023;33;33269;-85
2023/08/23 09:32:46;;;;;;;8.95;6.18;;;;;;;33.02;62.23;100335.16;5308396;33;33148;-84
2023/08/23 09:35:50;;;;;;;9.55;5.65;;;;;;;33.06;61.79;100334.16;5293055;33;33516;-83
2023/08/23 09:38:52;;;;;;;7.60;5.85;;;;;;;33.21;61.29;100329.22;5318309;33;33523;-84
2023/08/23 09:42:03;;;;;;;8.02;5.80;;;;;;;33.57;60.51;100334.41;5325165;33;34200;-84
2023/08/23 09:45:06;;;;;;;5.90;5.30;;;;;;;33.53;60.65;100325.06;5317850;33;35002;-84
2023/08/23 09:48:16;;;;;;;6.97;5.43;;;;;;;33.48;60.54;100314.84;5311123;33;34856;-84
2023/08/23 09:51:25;;;;;;;10.88;5.70;;;;;;;33.58;59.87;100328.50;5307394;33;33561;-83
2023/08/23 09:54:53;;;;;;;9.43;5.65;;;;;;;33.60;59.39;100322.56;5305225;33;34388;-84
2023/08/23 09:58:15;;;;;;;11.07;6.10;;;;;;;33.71;59.69;100317.44;5307656;33;33368;-84
2023/08/23 10:01:19;;;;;;;11.70;5.60;;;;;;;34.08;59.47;100324.19;5304696;33;34451;-84
2023/08/23 10:04:29;;;;;;;7.65;5.37;;;;;;;34.17;57.42;100326.94;5305240;33;33646;-84
2023/08/23 10:07:34;;;;;;;7.80;5.70;;;;;;;34.25;57.98;100326.88;5306366;33;33533;-83
2023/08/23 10:10:42;;;;;;;9.98;5.70;;;;;;;34.45;56.85;100327.22;5306459;33;33582;-84
2023/08/23 10:13:46;;;;;;;10.65;6.20;;;;;;;34.47;56.42;100325.72;5310153;33;33526;-84
2023/08/23 10:16:50;;;;;;;6.70;5.90;;;;;;;34.19;57.63;100327.41;5299908;33;33685;-83
2023/08/23 10:19:53;;;;;;;8.82;6.18;;;;;;;34.40;57.47;100321.81;5294642;33;33757;-84
2023/08/23 10:22:56;;;;;;;8.85;5.68;;;;;;;34.57;57.42;100324.53;5296101;33;32541;-84
2023/08/23 10:25:59;;;;;;;9.00;5.90;;;;;;;35.02;55.73;100328.59;5304700;33;33557;-84
2023/08/23 10:29:09;;;;;;;10.10;6.15;;;;;;;35.05;54.91;100325.13;5318781;33;34368;-84
2023/08/23 10:32:13;;;;;;;7.62;6.60;;;;;;;35.33;54.77;100320.53;5306701;33;33391;-84
2023/08/23 10:35:35;;;;;;;10.68;6.62;;;;;;;35.32;55.23;100312.50;5310119;33;34148;-87
2023/08/23 10:38:39;;;;;;;7.78;6.28;;;;;;;35.12;53.72;100319.78;5310145;33;34667;-84
2023/08/23 10:41:42;;;;;;;9.52;5.72;;;;;;;35.28;53.70;100320.78;5293152;33;33244;-84
2023/08/23 10:44:59;;;;;;;8.77;6.60;;;;;;;35.74;53.52;100315.16;5312041;33;33817;-84
2023/08/23 10:48:02;;;;;;;7.10;5.70;;;;;;;35.69;52.22;100309.75;5305701;33;33616;-84
2023/08/23 10:51:06;;;;;;;9.57;6.45;;;;;;;36.28;53.01;100312.13;5306760;33;33710;-84
2023/08/23 10:54:14;;;;;;;12.23;6.30;;;;;;;36.08;51.37;100297.87;5293518;33;34620;-84
2023/08/23 10:57:17;;;;;;;9.65;6.60;;;;;;;35.99;51.29;100304.75;5299825;33;33672;-84
2023/08/23 11:00:20;;;;;;;12.00;7.03;;;;;;;36.17;51.36;100300.56;5307309;33;33531;-84
2023/08/23 11:03:24;;;;;;;7.75;6.62;;;;;;;36.64;50.69;100294.41;5293336;33;34084;-85
2023/08/23 11:06:27;;;;;;;9.15;6.37;;;;;;;36.73;51.34;100295.06;5307035;33;33611;-84
2023/08/23 11:09:30;;;;;;;6.93;6.12;;;;;;;36.98;49.73;100303.38;5293989;33;33661;-84
2023/08/23 11:12:33;;;;;;;8.82;6.25;;;;;;;36.95;48.32;100304.91;5305635;33;34085;-84
2023/08/23 11:15:36;;;;;;;11.52;6.18;;;;;;;37.48;47.97;100290.72;5299615;33;33159;-84
2023/08/23 11:18:39;;;;;;;7.07;5.60;;;;;;;37.39;46.94;100295.69;5306168;33;34794;-84
2023/08/23 11:21:42;;;;;;;7.90;5.70;;;;;;;37.45;45.78;100295.03;5307786;33;34521;-85
2023/08/23 11:24:46;;;;;;;7.87;6.03;;;;;;;37.42;44.79;100289.34;5309735;33;33894;-84
2023/08/23 11:27:50;;;;;;;9.00;5.50;;;;;;;37.94;43.86;100290.25;5307239;33;34339;-84
2023/08/23 11:30:53;;;;;;;5.93;5.32;;;;;;;37.86;43.36;100287.25;5307666;33;33628;-84
2023/08/23 11:33:57;;;;;;;7.47;5.60;;;;;;;38.03;43.79;100288.09;5279297;33;34579;-84
2023/08/23 11:37:06;;;;;;;7.15;5.50;;;;;;;38.98;39.47;100282.09;5308440;33;33341;-83
2023/08/23 11:40:12;;;;;;;10.05;5.70;;;;;;;38.82;39.47;100285.00;5308648;33;33502;-83
2023/08/23 11:43:15;;;;;;;8.82;5.40;;;;;;;38.44;39.82;100281.00;5305474;33;33649;-84
2023/08/23 11:46:27;;;;;;;7.25;4.50;;;;;;;39.19;38.12;100285.31;5312025;33;33805;-84
2023/08/23 11:49:30;;;;;;;7.90;4.45;;;;;;;38.65;38.83;100277.81;5295118;33;34671;-83
2023/08/23 11:52:33;;;;;;;7.12;4.53;;;;;;;38.12;39.41;100274.63;5293087;33;34517;-84
2023/08/23 11:55:37;;;;;;;6.55;4.85;;;;;;;37.54;39.81;100277.25;5292662;33;33454;-84
2023/08/23 11:58:40;;;;;;;6.07;4.78;;;;;;;37.21;41.33;100279.19;5288650;33;34331;-84
2023/08/23 12:01:46;;;;;;;7.80;4.85;;;;;;;37.16;42.62;100275.81;5287847;33;33013;-84
2023/08/23 12:04:49;;;;;;;5.25;4.75;;;;;;;37.82;42.44;100269.50;5301195;33;33654;-84
2023/08/23 12:07:51;;;;;;;5.95;4.70;;;;;;;39.45;37.31;100281.78;5295030;33;34327;-84
2023/08/23 12:10:54;;;;;;;6.30;4.93;;;;;;;40.97;34.81;100268.63;5305891;33;33945;-88
2023/08/23 12:14:00;;;;;;;6.10;4.60;;;;;;;42.63;31.89;100271.53;5303145;33;34688;-88
2023/08/23 12:17:06;;;;;;;4.60;4.07;;;;;;;44.12;28.47;100270.87;5282142;33;32873;-85
2023/08/23 12:20:11;;;;;;;7.00;4.12;;;;;;;44.41;27.31;100264.34;5293022;33;34732;-84
2023/08/23 12:23:14;;;;;;;4.72;4.18;;;;;;;44.38;27.21;100268.81;5305364;33;33604;-85
2023/08/23 12:26:24;;;;;;;5.12;4.22;;;;;;;44.72;26.67;100274.69;5295169;33;33272;-82
2023/08/23 12:29:27;;;;;;;4.75;3.75;;;;;;;44.60;26.79;100260.97;5308081;33;33589;-81
2023/08/23 12:32:30;;;;;;;4.00;3.60;;;;;;;45.72;26.36;100256.16;5295236;33;34128;-82
2023/08/23 12:35:33;;;;;;;4.53;3.47;;;;;;;46.15;24.54;100250.03;5305540;33;33643;-82
2023/08/23 12:38:36;;;;;;;5.07;3.65;;;;;;;44.74;25.97;100260.94;5306038;33;32285;-82
2023/08/23 12:41:40;;;;;;;5.87;3.53;;;;;;;43.90;27.87;100258.72;5294548;33;33727;-83
2023/08/23 12:44:43;;;;;;;5.65;4.03;;;;;;;45.43;25.89;100253.56;5309259;33;34791;-82
2023/08/23 12:47:46;;;;;;;4.43;3.33;;;;;;;46.06;24.73;100239.16;5295155;33;33802;-82
2023/08/23 12:50:50;;;;;;;3.87;3.40;;;;;;;46.46;24.21;100247.25;5307734;33;33560;-82
2023/08/23 12:53:56;;;;;;;3.70;3.35;;;;;;;46.47;24.27;100237.44;5299686;33;34328;-82
2023/08/23 12:56:59;;;;;;;4.93;3.50;;;;;;;44.31;26.54;100243.22;5307294;33;33705;-82
2023/08/23 13:00:05;;;;;;;4.05;3.53;;;;;;;43.36;28.32;100231.66;5307275;33;34304;-82
2023/08/23 13:03:28;;;;;;;3.97;3.58;;;;;;;44.68;26.75;100239.03;5308731;33;33403;-82
2023/08/23 13:06:32;;;;;;;9.50;3.90;;;;;;;44.84;26.51;100232.88;5296335;33;34168;-83
2023/08/23 13:09:34;;;;;;;3.55;3.17;;;;;;;42.40;28.45;100223.72;5296462;33;34010;-82
2023/08/23 13:12:38;;;;;;;6.07;3.55;;;;;;;41.89;29.90;100217.81;5308671;33;33531;-82
2023/08/23 13:15:43;;;;;;;6.62;3.78;;;;;;;43.76;26.48;100221.09;5308044;33;33387;-82
2023/08/23 13:18:46;;;;;;;3.42;3.12;;;;;;;44.85;24.98;100215.41;5307460;33;33718;-82
2023/08/23 13:21:49;;;;;;;3.53;3.20;;;;;;;44.99;24.42;100217.31;5309361;33;34704;-82
2023/08/23 13:24:52;;;;;;;4.10;3.37;;;;;;;45.39;24.61;100217.84;5305924;33;34385;-82
2023/08/23 13:27:55;;;;;;;4.43;3.40;;;;;;;45.96;24.19;100217.31;5307002;33;33644;-82
2023/08/23 13:30:58;;;;;;;5.15;3.03;;;;;;;45.87;24.32;100220.66;5302449;33;34142;-82
2023/08/23 13:34:01;;;;;;;5.05;3.75;;;;;;;45.32;25.50;100210.19;5295279;33;34897;-82
2023/08/23 13:37:05;;;;;;;4.28;3.40;;;;;;;46.07;23.91;100215.12;5308042;33;33179;-82
2023/08/23 13:40:09;;;;;;;3.75;3.30;;;;;;;45.32;24.70;100212.25;5295586;33;34259;-82
2023/08/23 13:43:12;;;;;;;5.22;3.28;;;;;;;45.20;24.83;100205.03;5295316;33;33215;-82
2023/08/23 13:46:18;;;;;;;5.68;3.45;;;;;;;46.14;24.06;100200.03;5296553;33;33497;-81
2023/08/23 13:49:21;;;;;;;4.10;3.37;;;;;;;45.10;24.57;100203.03;5308225;33;33563;-82
2023/08/23 13:52:24;;;;;;;7.28;3.25;;;;;;;45.19;24.49;100207.03;5306040;33;34701;-82
2023/08/23 13:55:27;;;;;;;3.75;3.17;;;;;;;45.11;24.93;100205.47;5290445;33;33584;-82
2023/08/23 13:58:30;;;;;;;6.80;3.08;;;;;;;44.66;25.10;100208.19;5306163;33;33220;-85
2023/08/23 14:01:33;;;;;;;7.18;3.33;;;;;;;44.03;25.60;100210.13;5299599;33;33581;-86
2023/08/23 14:04:36;;;;;;;6.50;3.45;;;;;;;43.06;26.81;100220.66;5301295;33;203505;-86
2023/08/23 14:07:40;;;;;;;7.12;3.15;;;;;;;42.34;27.99;100217.66;5306155;33;33493;-86
2023/08/23 14:10:43;;;;;;;7.28;3.20;;;;;;;40.67;30.34;100217.91;5307350;33;33362;-82
2023/08/23 14:13:46;;;;;;;6.18;3.60;;;;;;;39.99;31.70;100231.91;5311807;33;33497;-82
2023/08/23 14:16:49;;;;;;;5.25;2.95;;;;;;;39.05;33.54;100231.53;5307750;33;33816;-82
2023/08/23 14:19:56;;;;;;;4.03;3.50;;;;;;;37.87;33.70;100231.84;5306943;33;33572;-82
2023/08/23 14:22:59;;;;;;;5.12;3.37;;;;;;;37.74;35.11;100239.59;5307055;33;34493;-82
2023/08/23 14:26:03;;;;;;;5.82;4.40;;;;;;;37.37;35.84;100241.88;5307203;33;31755;-82
2023/08/23 14:29:09;;;;;;;;;;;;;;;37.11;36.47;100246.00;5306570;33;33799;-82
2023/08/23 14:32:12;;;;;;;4.97;3.53;;;;;;;36.96;36.19;100239.19;5307996;33;33399;-82
2023/08/23 14:35:16;;;;;;;3.70;3.30;;;;;;;36.14;36.67;100236.81;5306362;33;33307;-82
2023/08/23 14:38:19;;;;;;;5.18;3.67;;;;;;;36.25;37.46;100239.94;5306822;33;33562;-82
2023/08/23 14:41:24;;;;;;;4.37;3.37;;;;;;;36.23;36.19;100239.47;5307061;33;33806;-82
2023/08/23 14:44:29;;;;;;;3.95;3.22;;;;;;;35.83;37.68;100238.25;5307124;33;33524;-82
2023/08/23 14:47:32;;;;;;;3.60;3.12;;;;;;;35.62;38.08;100238.34;5308528;33;33427;-82
2023/08/23 14:50:35;;;;;;;5.25;3.45;;;;;;;35.71;37.50;100243.81;5313582;33;34065;-82
2023/08/23 14:53:38;;;;;;;5.07;3.25;;;;;;;35.60;37.26;100256.66;5297263;33;34099;-82
2023/08/23 14:56:43;;;;;;;7.57;3.92;;;;;;;35.46;37.83;100250.59;5294862;33;34335;-82
2023/08/23 14:59:46;;;;;;;5.15;3.70;;;;;;;35.47;37.67;100246.59;5294001;33;33282;-82
2023/08/23 15:02:49;;;;;;;5.50;3.10;;;;;;;35.48;37.59;100249.03;5306770;33;33592;-82
2023/08/23 15:05:55;;;;;;;4.60;3.45;;;;;;;35.07;38.91;100239.66;5307044;33;33721;-82
2023/08/23 15:08:58;;;;;;;5.80;3.55;;;;;;;34.91;38.93;100242.28;5294199;33;33703;-82
2023/08/23 15:12:02;;;;;;;4.82;3.33;;;;;;;34.45;39.43;100249.75;5306987;33;33630;-82
2023/08/23 15:15:06;;;;;;;4.07;3.67;;;;;;;33.88;41.09;100249.50;5293800;33;33735;-82
2023/08/23 15:18:09;;;;;;;5.07;3.55;;;;;;;33.51;41.83;100251.97;5305702;33;33561;-82
2023/08/23 15:21:13;;;;;;;5.68;3.60;;;;;;;33.41;42.52;100251.19;5305086;33;34865;-83
2023/08/23 15:24:16;;;;;;;5.32;3.97;;;;;;;33.36;43.69;100256.12;5293969;33;33843;-82
2023/08/23 15:27:20;;;;;;;4.90;3.70;;;;;;;33.14;43.30;100252.44;5307162;33;34381;-82
2023/08/23 15:30:43;;;;;;;6.12;4.20;;;;;;;32.94;43.85;100255.91;5302104;33;34692;-82
2023/08/23 15:33:46;;;;;;;4.70;3.80;;;;;;;32.90;44.62;100252.12;5308097;33;34927;-82
2023/08/23 15:36:49;;;;;;;6.07;3.83;;;;;;;32.70;44.91;100248.03;5310510;33;34674;-82
2023/08/23 15:39:52;;;;;;;4.20;3.80;;;;;;;32.37;45.68;100256.88;5294422;33;33620;-84
2023/08/23 15:42:55;;;;;;;5.90;4.43;;;;;;;32.39;46.21;100256.56;5295003;33;34635;-83
2023/08/23 15:45:58;;;;;;;5.80;4.32;;;;;;;32.31;47.19;100258.19;5306919;33;33637;-83
2023/08/23 15:49:01;;;;;;;7.43;3.97;;;;;;;32.33;46.88;100263.47;5294128;33;33545;-82
2023/08/23 15:52:04;;;;;;;4.70;3.97;;;;;;;32.30;46.78;100271.31;5293259;33;34279;-82
2023/08/23 15:55:10;;;;;;;4.30;3.90;;;;;;;32.17;47.25;100249.16;5293682;33;33505;-86
2023/08/23 15:58:13;;;;;;;6.40;4.87;;;;;;;31.97;48.77;100257.03;5293987;33;34428;-86
2023/08/23 16:01:16;;;;;;;5.20;4.32;;;;;;;31.70;50.20;100251.66;5295396;33;33677;-86
2023/08/23 16:04:19;;;;;;;9.15;4.40;;;;;;;31.56;50.87;100247.03;5295225;33;33731;-83
2023/08/23 16:07:23;;;;;;;6.68;4.50;;;;;;;31.44;53.08;100246.81;5308888;33;33355;-82
2023/08/23 16:10:27;;;;;;;7.85;4.43;;;;;;;31.27;52.77;100244.75;5296117;33;34299;-82
2023/08/23 16:13:29;;;;;;;9.10;4.90;;;;;;;31.13;53.72;100246.81;5309329;33;33277;-82
